Time;durP1;ratioP1;P1;durP2;ratioP2;P2;SDS_P1;SDS_P2;PMS_P1;PMS_P2;Temp;Humidity;BMP_temperature;BMP_pressure;BME280_temperature;BME280_humidity;BME280_pressure;Samples;Min_cycle;Max_cycle;Signal;HPM_P1;HPM_P2
2021/04/27 00:00:45;;;;;;;2.90;2.00;;;15.60;99.90;;;;;;5157602;27;20447;-40
2021/04/27 00:03:16;;;;;;;2.57;2.30;;;15.60;99.90;;;;;;5163510;27;20496;-42
2021/04/27 00:05:46;;;;;;;2.40;2.20;;;15.70;99.90;;;;;;5164808;27;20443;-38
2021/04/27 00:08:17;;;;;;;2.03;1.93;;;15.70;99.90;;;;;;5164397;27;20793;-42
2021/04/27 00:10:47;;;;;;;1.90;1.80;;;15.80;99.90;;;;;;5164764;27;20439;-42
2021/04/27 00:13:17;;;;;;;4.50;2.27;;;15.80;99.90;;;;;;5164242;27;20487;-41
2021/04/27 00:15:48;;;;;;;3.23;2.77;;;15.70;99.90;;;;;;5164967;27;20527;-41
2021/04/27 00:18:18;;;;;;;2.80;2.50;;;15.90;99.80;;;;;;5164618;27;20414;-41
2021/04/27 00:20:48;;;;;;;2.20;2.03;;;16.00;99.90;;;;;;5159809;27;20444;-41
2021/04/27 00:23:19;;;;;;;2.07;1.97;;;16.10;99.90;;;;;;5163821;27;20452;-41
2021/04/27 00:25:50;;;;;;;2.40;2.20;;;16.00;99.90;;;;;;5152999;27;20512;-42
2021/04/27 00:28:20;;;;;;;2.53;2.33;;;15.90;98.90;;;;;;5156563;27;20464;-41
2021/04/27 00:30:50;;;;;;;2.70;2.50;;;15.90;99.60;;;;;;5164029;27;20448;-40
2021/04/27 00:33:20;;;;;;;3.10;2.80;;;15.90;99.90;;;;;;5163449;27;20479;-40
2021/04/27 00:35:50;;;;;;;2.40;2.20;;;16.00;99.90;;;;;;5163661;27;20459;-41
2021/04/27 00:38:21;;;;;;;3.00;2.20;;;16.00;98.80;;;;;;5163883;27;20440;-41
2021/04/27 00:40:52;;;;;;;1.90;1.80;;;16.10;98.50;;;;;;5164023;27;20501;-41
2021/04/27 00:43:22;;;;;;;4.77;2.13;;;16.10;98.60;;;;;;5162886;27;20443;-41
2021/04/27 00:45:52;;;;;;;2.20;2.10;;;16.10;98.80;;;;;;5163405;27;20523;-40
2021/04/27 00:48:22;;;;;;;2.73;2.53;;;16.10;97.60;;;;;;5158175;27;20448;-39
2021/04/27 00:50:53;;;;;;;2.37;2.17;;;16.00;97.70;;;;;;5148260;27;20453;-41
2021/04/27 00:53:24;;;;;;;1.87;1.77;;;16.00;97.20;;;;;;5148761;27;20475;-41
2021/04/27 00:55:54;;;;;;;2.60;2.40;;;15.90;97.90;;;;;;5164252;27;20455;-40
2021/04/27 00:58:26;;;;;;;2.33;2.20;;;16.00;96.80;;;;;;5163425;27;20534;-40
2021/04/27 01:00:56;;;;;;;2.33;2.13;;;16.00;96.80;;;;;;5163863;27;20496;-40
2021/04/27 01:03:26;;;;;;;2.30;2.20;;;16.00;96.70;;;;;;5152510;27;20440;-40
2021/04/27 01:05:57;;;;;;;2.30;2.20;;;15.80;97.00;;;;;;5163502;27;20501;-39
2021/04/27 01:08:33;;;;;;;2.53;2.33;;;15.70;96.50;;;;;;5163361;27;20497;-41
2021/04/27 01:11:08;;;;;;;2.43;2.33;;;15.70;97.40;;;;;;5162935;27;20450;-41
2021/04/27 01:13:43;;;;;;;3.07;2.87;;;15.70;96.70;;;;;;5152644;27;20524;-40
2021/04/27 01:16:15;;;;;;;2.80;2.60;;;15.60;97.60;;;;;;5165197;27;20466;-40
2021/04/27 01:18:50;;;;;;;2.83;2.63;;;15.50;97.70;;;;;;5161810;27;20483;-38
2021/04/27 01:21:25;;;;;;;2.60;2.40;;;15.50;99.10;;;;;;5166103;27;21525;-40
2021/04/27 01:24:16;;;;;;;2.70;2.27;;;15.50;99.60;;;;;;5167722;27;20500;-41
2021/04/27 01:26:49;;;;;;;2.40;2.20;;;15.60;98.30;;;;;;5165810;27;20489;-41
2021/04/27 01:29:22;;;;;;;2.63;2.43;;;15.60;98.90;;;;;;5167380;27;20935;-40
2021/04/27 01:31:54;;;;;;;2.47;2.27;;;15.60;99.00;;;;;;5166809;27;20551;-41
2021/04/27 01:34:28;;;;;;;2.30;2.10;;;15.60;98.70;;;;;;5166338;27;20479;-40
2021/04/27 01:36:59;;;;;;;2.20;2.10;;;15.50;99.40;;;;;;5165913;27;20452;-42
2021/04/27 01:39:30;;;;;;;1.97;1.87;;;15.60;99.60;;;;;;5166999;27;20520;-40
2021/04/27 01:42:03;;;;;;;2.53;2.33;;;15.50;99.60;;;;;;5166757;27;20496;-40
2021/04/27 01:44:35;;;;;;;2.80;2.60;;;15.40;99.90;;;;;;5167323;27;20475;-39
2021/04/27 01:47:08;;;;;;;2.07;1.83;;;15.40;99.80;;;;;;5165950;27;20444;-40
2021/04/27 01:49:41;;;;;;;1.73;1.63;;;15.30;99.90;;;;;;5166644;27;20452;-41
2021/04/27 01:52:12;;;;;;;26.03;23.87;;;15.20;99.90;;;;;;5166528;27;20454;-40
2021/04/27 01:54:42;;;;;;;14.47;13.23;;;15.30;99.90;;;;;;5165709;27;20623;-40
2021/04/27 01:57:14;;;;;;;53.27;42.63;;;15.10;99.90;;;;;;5166101;27;20519;-40
2021/04/27 01:59:44;;;;;;;8.60;7.60;;;15.10;99.90;;;;;;5167393;27;20447;-40
2021/04/27 02:02:14;;;;;;;6.37;5.77;;;15.00;99.90;;;;;;5166129;27;20466;-39
2021/04/27 02:04:44;;;;;;;2.20;2.07;;;14.90;99.90;;;;;;5166430;27;20447;-38
2021/04/27 02:07:14;;;;;;;1.90;1.80;;;15.00;99.90;;;;;;5166507;27;20448;-42
2021/04/27 02:09:44;;;;;;;3.13;1.80;;;14.90;99.90;;;;;;5166532;27;20436;-40
2021/04/27 02:12:16;;;;;;;1.63;1.40;;;14.90;99.90;;;;;;5166236;27;20528;-39
2021/04/27 02:14:46;;;;;;;1.97;1.60;;;14.90;99.90;;;;;;5166850;27;20487;-39
2021/04/27 02:17:20;;;;;;;1.20;1.17;;;14.80;99.80;;;;;;5165990;27;20460;-39
2021/04/27 02:19:52;;;;;;;1.13;1.10;;;14.60;99.90;;;;;;5151175;27;20458;-38
2021/04/27 02:22:27;;;;;;;0.90;0.90;;;14.60;99.80;;;;;;5155569;27;20459;-39
2021/04/27 02:24:59;;;;;;;0.77;0.77;;;14.60;99.90;;;;;;5165825;27;20443;-39
2021/04/27 02:27:34;;;;;;;1.50;1.40;;;14.60;99.90;;;;;;5164533;27;20432;-39
2021/04/27 02:30:05;;;;;;;1.67;1.57;;;14.60;99.90;;;;;;5155154;27;20443;-39
2021/04/27 02:32:37;;;;;;;1.03;1.00;;;14.50;99.90;;;;;;5165749;27;20478;-39
2021/04/27 02:35:10;;;;;;;3.43;1.00;;;14.40;99.90;;;;;;5165027;27;20486;-35
2021/04/27 02:37:43;;;;;;;3.27;1.20;;;14.40;99.90;;;;;;5165433;27;20471;-38
2021/04/27 02:40:15;;;;;;;1.17;1.00;;;14.30;99.90;;;;;;5165051;27;20440;-40
2021/04/27 02:42:51;;;;;;;1.00;1.00;;;14.30;99.90;;;;;;5165377;27;20440;-40
2021/04/27 02:45:30;;;;;;;1.20;1.20;;;14.30;99.90;;;;;;5166286;27;21000;-38
2021/04/27 02:48:12;;;;;;;1.10;1.00;;;14.20;99.90;;;;;;5154735;27;20448;-40
2021/04/27 02:50:44;;;;;;;1.00;0.90;;;14.20;99.90;;;;;;5165069;27;20477;-40
2021/04/27 02:53:15;;;;;;;1.67;1.23;;;14.10;99.90;;;;;;5164973;27;20452;-40
2021/04/27 02:55:45;;;;;;;2.57;1.67;;;14.10;99.90;;;;;;5165171;27;20460;-38
2021/04/27 02:58:17;;;;;;;1.73;1.63;;;14.00;99.90;;;;;;5165039;27;20900;-40
2021/04/27 03:00:47;;;;;;;1.90;1.43;;;13.90;99.90;;;;;;5165262;27;20444;-40
2021/04/27 03:03:17;;;;;;;1.73;1.63;;;14.00;99.90;;;;;;5164052;27;20485;-40
2021/04/27 03:05:47;;;;;;;1.50;1.40;;;13.90;99.90;;;;;;5165340;27;20511;-40
2021/04/27 03:08:17;;;;;;;1.67;1.57;;;13.90;99.90;;;;;;5165254;27;20481;-40
2021/04/27 03:10:47;;;;;;;1.60;1.50;;;13.90;99.90;;;;;;5164796;27;20448;-40
2021/04/27 03:13:19;;;;;;;1.57;1.47;;;13.80;99.90;;;;;;5164985;27;20444;-40
2021/04/27 03:15:49;;;;;;;1.77;1.67;;;13.60;99.90;;;;;;5146143;27;20527;-40
2021/04/27 03:18:19;;;;;;;1.43;1.33;;;13.50;99.90;;;;;;5161334;27;20489;-39
2021/04/27 03:20:50;;;;;;;2.10;1.23;;;13.50;99.90;;;;;;5164540;27;20919;-40
2021/04/27 03:23:21;;;;;;;1.30;1.13;;;13.50;99.90;;;;;;5165279;27;20448;-38
2021/04/27 03:25:51;;;;;;;1.40;1.30;;;13.40;99.90;;;;;;5163809;27;20448;-40
2021/04/27 03:28:22;;;;;;;1.57;1.40;;;13.40;99.90;;;;;;5164578;27;20980;-40
2021/04/27 03:30:52;;;;;;;1.77;1.30;;;13.40;99.90;;;;;;5164847;27;20532;-40
2021/04/27 03:33:23;;;;;;;1.77;1.67;;;13.30;99.90;;;;;;5164353;27;20451;-39
2021/04/27 03:35:53;;;;;;;1.40;1.30;;;13.20;99.90;;;;;;5160111;27;20447;-39
2021/04/27 03:38:23;;;;;;;1.70;1.60;;;13.10;99.90;;;;;;5163479;27;21038;-39
2021/04/27 03:40:53;;;;;;;2.50;1.87;;;12.90;99.90;;;;;;5164922;27;20451;-40
2021/04/27 03:43:24;;;;;;;3.17;1.63;;;12.90;99.90;;;;;;5164295;27;20500;-38
2021/04/27 03:45:55;;;;;;;1.60;1.50;;;12.70;99.90;;;;;;5164814;27;20579;-40
2021/04/27 03:48:26;;;;;;;3.37;1.90;;;12.60;99.90;;;;;;5164284;27;20440;-40
2021/04/27 03:50:56;;;;;;;3.40;2.13;;;12.40;99.90;;;;;;5161607;27;20455;-40
2021/04/27 03:53:26;;;;;;;1.70;1.60;;;12.30;99.90;;;;;;5158044;27;20447;-40
2021/04/27 03:55:56;;;;;;;4.10;2.10;;;12.20;99.90;;;;;;5164671;27;20436;-40
2021/04/27 03:58:27;;;;;;;2.13;1.93;;;12.10;99.90;;;;;;5162620;27;20500;-35
2021/04/27 04:00:57;;;;;;;2.30;2.10;;;12.00;99.90;;;;;;5160262;27;20459;-41
2021/04/27 04:03:27;;;;;;;2.43;2.23;;;12.00;99.90;;;;;;5164079;27;20444;-38
2021/04/27 04:05:57;;;;;;;2.73;2.20;;;11.90;99.90;;;;;;5164427;27;20548;-40
2021/04/27 04:08:27;;;;;;;2.20;2.00;;;11.90;99.90;;;;;;5164816;27;20912;-39
2021/04/27 04:10:58;;;;;;;2.73;2.53;;;11.80;99.90;;;;;;5164862;27;20500;-39
2021/04/27 04:13:29;;;;;;;5.60;2.30;;;11.80;99.90;;;;;;5162757;27;20451;-40
2021/04/27 04:15:59;;;;;;;2.63;2.43;;;11.70;99.90;;;;;;5165149;27;20452;-40
2021/04/27 04:18:29;;;;;;;2.23;2.10;;;11.60;99.90;;;;;;5164224;27;20876;-39
2021/04/27 04:21:00;;;;;;;2.13;2.00;;;11.60;99.90;;;;;;5163680;27;20535;-40
2021/04/27 04:23:30;;;;;;;2.90;2.60;;;11.50;99.90;;;;;;5163727;27;20218;-40
2021/04/27 04:26:00;;;;;;;2.50;2.30;;;11.40;99.90;;;;;;5165057;27;20646;-40
2021/04/27 04:28:32;;;;;;;3.20;2.90;;;11.40;99.90;;;;;;5163296;27;20198;-40
2021/04/27 04:31:02;;;;;;;3.45;3.10;;;11.30;99.90;;;;;;5164613;27;20653;-39
2021/04/27 04:33:32;;;;;;;3.78;3.47;;;11.20;99.90;;;;;;5161089;27;20218;-38
2021/04/27 04:36:02;;;;;;;3.10;2.80;;;11.10;99.90;;;;;;5163931;27;20205;-40
2021/04/27 04:38:32;;;;;;;4.97;2.80;;;11.10;99.90;;;;;;5164137;27;20194;-38
2021/04/27 04:41:03;;;;;;;2.90;2.70;;;11.10;99.90;;;;;;5163101;27;20217;-38
2021/04/27 04:43:34;;;;;;;2.85;2.65;;;11.00;99.90;;;;;;5161534;27;20191;-40
2021/04/27 04:46:05;;;;;;;3.30;2.97;;;10.90;99.90;;;;;;5161247;27;20803;-36
2021/04/27 04:48:35;;;;;;;3.13;2.92;;;10.80;99.90;;;;;;5163270;27;20201;-38
2021/04/27 04:51:06;;;;;;;4.15;3.33;;;10.70;99.90;;;;;;5162225;27;20200;-40
2021/04/27 04:53:36;;;;;;;3.28;2.97;;;10.60;99.90;;;;;;5150557;27;20255;-42
2021/04/27 04:56:06;;;;;;;3.60;3.30;;;10.60;99.90;;;;;;5167304;27;20271;-40
2021/04/27 04:58:38;;;;;;;3.50;3.17;;;10.50;99.90;;;;;;5165235;27;20210;-40
2021/04/27 05:01:08;;;;;;;6.85;3.33;;;10.50;99.90;;;;;;5167571;27;20195;-40
2021/04/27 05:03:38;;;;;;;3.10;2.90;;;10.40;99.90;;;;;;5166831;27;20304;-41
2021/04/27 05:06:14;;;;;;;4.28;3.42;;;10.40;99.90;;;;;;5167760;27;20199;-41
2021/04/27 05:08:46;;;;;;;4.53;4.13;;;10.40;99.90;;;;;;5168894;27;20186;-40
2021/04/27 05:11:17;;;;;;;4.55;4.15;;;10.30;99.90;;;;;;5167341;27;20190;-39
2021/04/27 05:13:48;;;;;;;4.75;4.35;;;10.30;99.90;;;;;;5164672;27;20662;-40
2021/04/27 05:16:18;;;;;;;4.72;4.32;;;10.20;99.90;;;;;;5168233;27;20206;-37
2021/04/27 05:18:49;;;;;;;4.13;3.78;;;10.20;99.90;;;;;;5168061;27;20237;-36
2021/04/27 05:21:20;;;;;;;3.80;3.50;;;10.10;99.90;;;;;;5167795;27;20198;-39
2021/04/27 05:23:50;;;;;;;5.55;4.00;;;10.00;99.90;;;;;;5167342;27;20202;-39
2021/04/27 05:26:20;;;;;;;5.45;4.95;;;10.00;99.90;;;;;;5166949;27;20194;-39
2021/04/27 05:28:52;;;;;;;6.72;5.05;;;10.00;99.90;;;;;;5167669;27;20218;-39
2021/04/27 05:31:22;;;;;;;5.10;4.70;;;10.00;99.90;;;;;;5167159;27;20271;-39
2021/04/27 05:33:52;;;;;;;7.05;5.40;;;10.00;99.90;;;;;;5165270;27;20202;-39
2021/04/27 05:36:22;;;;;;;5.30;4.80;;;9.80;99.90;;;;;;5167376;27;20221;-39
2021/04/27 05:38:53;;;;;;;5.15;4.65;;;9.80;99.90;;;;;;5167373;27;20536;-39
2021/04/27 05:41:23;;;;;;;5.07;4.57;;;9.80;99.90;;;;;;5164504;27;20199;-41
2021/04/27 05:43:55;;;;;;;4.72;4.15;;;9.80;99.90;;;;;;5166922;27;20255;-40
2021/04/27 05:46:25;;;;;;;5.55;4.90;;;9.70;99.90;;;;;;5167179;27;20679;-40
2021/04/27 05:48:55;;;;;;;4.10;3.80;;;9.70;99.90;;;;;;5166409;27;20187;-39
2021/04/27 05:51:26;;;;;;;4.00;3.70;;;9.60;99.90;;;;;;5166955;27;20197;-39
2021/04/27 05:53:56;;;;;;;4.88;4.43;;;9.60;99.90;;;;;;5166361;27;20251;-40
2021/04/27 05:56:26;;;;;;;4.43;4.05;;;9.60;99.90;;;;;;5165514;27;20274;-39
2021/04/27 05:58:57;;;;;;;4.25;3.85;;;9.50;99.90;;;;;;5167515;27;20198;-38
2021/04/27 06:01:27;;;;;;;5.07;4.57;;;9.40;99.90;;;;;;5165384;27;20195;-38
2021/04/27 06:03:58;;;;;;;4.93;3.90;;;9.40;99.90;;;;;;5166778;27;20262;-39
2021/04/27 06:06:28;;;;;;;4.50;4.10;;;9.40;99.90;;;;;;5166985;27;20187;-38
2021/04/27 06:08:58;;;;;;;4.63;4.22;;;9.40;99.90;;;;;;5166935;27;20203;-38
2021/04/27 06:11:28;;;;;;;4.50;4.10;;;9.30;99.90;;;;;;5165962;27;20202;-39
2021/04/27 06:14:00;;;;;;;6.22;4.63;;;9.30;99.90;;;;;;5166773;27;20654;-38
2021/04/27 06:16:30;;;;;;;6.03;4.80;;;9.20;99.90;;;;;;5166251;27;20195;-39
2021/04/27 06:19:00;;;;;;;4.80;4.40;;;9.20;99.90;;;;;;5167319;27;20220;-39
2021/04/27 06:21:30;;;;;;;5.13;4.70;;;9.20;99.90;;;;;;5164793;27;20251;-39
2021/04/27 06:24:00;;;;;;;5.40;4.72;;;9.20;99.90;;;;;;5166708;27;20362;-39
2021/04/27 06:26:30;;;;;;;3.90;3.50;;;9.20;99.90;;;;;;5159965;27;20198;-39
2021/04/27 06:29:01;;;;;;;4.85;4.45;;;9.20;99.90;;;;;;5162479;27;20202;-37
2021/04/27 06:31:32;;;;;;;5.60;5.10;;;9.10;99.90;;;;;;5161307;27;20729;-39
2021/04/27 06:34:02;;;;;;;4.85;4.32;;;9.00;99.90;;;;;;5167047;27;20187;-39
2021/04/27 06:36:34;;;;;;;4.93;4.53;;;9.00;99.90;;;;;;5164892;27;20199;-41
2021/04/27 06:39:23;;;;;;;4.80;4.40;;;8.90;99.90;;;;;;5165232;27;20665;-40
2021/04/27 06:41:53;;;;;;;5.40;4.90;;;8.90;99.90;;;;;;5165007;27;20198;-39
2021/04/27 06:44:25;;;;;;;5.10;4.60;;;8.90;99.90;;;;;;5165389;27;20289;-36
2021/04/27 06:46:55;;;;;;;5.78;5.28;;;8.80;99.90;;;;;;5166038;27;20210;-38
2021/04/27 06:49:26;;;;;;;5.40;5.00;;;8.80;99.90;;;;;;5165304;27;20187;-39
2021/04/27 06:51:56;;;;;;;7.05;6.45;;;8.80;99.90;;;;;;5165214;27;20262;-40
2021/04/27 06:54:26;;;;;;;5.55;5.05;;;8.70;99.90;;;;;;5155744;27;20223;-38
2021/04/27 06:56:56;;;;;;;5.65;5.10;;;8.70;99.90;;;;;;5163992;27;20194;-39
2021/04/27 06:59:39;;;;;;;5.80;5.38;;;8.70;99.90;;;;;;5165994;27;20202;-37
2021/04/27 07:02:12;;;;;;;6.65;6.05;;;8.60;99.90;;;;;;5165813;27;20210;-39
2021/04/27 07:04:43;;;;;;;6.32;5.72;;;8.60;99.90;;;;;;5165556;27;20191;-38
2021/04/27 07:07:13;;;;;;;6.53;6.03;;;8.50;99.90;;;;;;5165499;27;20304;-39
2021/04/27 07:09:43;;;;;;;7.00;6.40;;;8.50;99.90;;;;;;5165669;27;20267;-39
2021/04/27 07:12:14;;;;;;;7.82;7.13;;;8.40;99.90;;;;;;5164118;27;20198;-37
2021/04/27 07:14:45;;;;;;;6.97;6.43;;;8.30;99.90;;;;;;5165536;27;20222;-39
2021/04/27 07:17:15;;;;;;;6.40;5.85;;;8.30;99.90;;;;;;5164642;27;20199;-39
2021/04/27 07:19:45;;;;;;;6.85;6.22;;;8.40;99.90;;;;;;5165879;27;20335;-38
2021/04/27 07:22:15;;;;;;;6.93;6.32;;;8.30;99.90;;;;;;5165068;27;20202;-39
2021/04/27 07:24:45;;;;;;;7.65;6.97;;;8.30;99.90;;;;;;5162217;27;20214;-39
2021/04/27 07:27:15;;;;;;;7.22;6.53;;;8.30;99.90;;;;;;5164205;27;20195;-39
2021/04/27 07:29:46;;;;;;;6.65;6.05;;;8.30;99.90;;;;;;5165247;27;20199;-39
2021/04/27 07:32:17;;;;;;;6.55;6.00;;;8.20;99.90;;;;;;5165311;27;20609;-39
2021/04/27 07:34:49;;;;;;;6.25;5.72;;;8.20;99.90;;;;;;5165482;27;20287;-41
2021/04/27 07:37:22;;;;;;;7.90;5.93;;;8.30;99.90;;;;;;5164242;27;20277;-38
2021/04/27 07:39:52;;;;;;;6.28;5.78;;;8.20;99.90;;;;;;5165389;27;20224;-38
2021/04/27 07:42:22;;;;;;;6.43;5.90;;;8.20;99.90;;;;;;5145792;27;20194;-38
2021/04/27 07:44:54;;;;;;;5.82;5.28;;;8.20;99.90;;;;;;5164733;27;20241;-38
2021/04/27 07:47:24;;;;;;;7.00;6.32;;;8.10;99.90;;;;;;5164348;27;20187;-38
2021/04/27 07:49:55;;;;;;;8.18;6.22;;;8.10;99.90;;;;;;5165493;27;20246;-37
2021/04/27 07:52:26;;;;;;;6.22;5.63;;;8.10;99.90;;;;;;5164323;27;20195;-38
2021/04/27 07:54:56;;;;;;;6.25;5.32;;;8.10;99.90;;;;;;5164796;27;20657;-41
2021/04/27 07:57:26;;;;;;;6.10;5.50;;;8.10;99.90;;;;;;5163382;27;20258;-39
2021/04/27 07:59:57;;;;;;;6.55;5.95;;;8.10;99.90;;;;;;5164086;27;20191;-36
2021/04/27 08:02:28;;;;;;;6.15;5.47;;;8.10;99.90;;;;;;5165012;27;20270;-38
2021/04/27 08:04:58;;;;;;;5.40;5.00;;;8.10;99.90;;;;;;5165009;27;20233;-39
2021/04/27 08:07:28;;;;;;;11.18;5.07;;;8.20;99.90;;;;;;5163670;27;20190;-38
2021/04/27 08:09:58;;;;;;;5.72;4.80;;;8.10;99.90;;;;;;5164869;27;20247;-41
2021/04/27 08:12:29;;;;;;;9.30;5.28;;;8.00;99.90;;;;;;5163908;27;20202;-39
2021/04/27 08:15:00;;;;;;;4.72;4.32;;;8.00;99.90;;;;;;5162075;27;20286;-38
2021/04/27 08:17:30;;;;;;;5.55;5.05;;;8.00;99.90;;;;;;5163765;27;20191;-38
2021/04/27 08:20:00;;;;;;;5.07;4.68;;;8.00;99.90;;;;;;5164674;27;20375;-39
2021/04/27 08:22:31;;;;;;;5.53;5.00;;;8.00;99.90;;;;;;5164072;27;20213;-39
2021/04/27 08:25:01;;;;;;;6.22;5.63;;;8.00;99.90;;;;;;5159872;27;20214;-38
2021/04/27 08:27:32;;;;;;;7.55;6.00;;;7.90;99.90;;;;;;5165166;27;20214;-39
2021/04/27 08:30:03;;;;;;;9.05;7.03;;;8.00;99.90;;;;;;5168432;27;20190;-39
2021/04/27 08:32:33;;;;;;;5.93;5.35;;;8.00;99.90;;;;;;5169036;27;20274;-39
2021/04/27 08:35:04;;;;;;;6.95;6.05;;;8.00;99.90;;;;;;5168197;27;20253;-39
2021/04/27 08:37:35;;;;;;;6.78;5.70;;;8.00;99.90;;;;;;5164215;27;20295;-37
2021/04/27 08:40:06;;;;;;;6.20;5.57;;;8.10;99.90;;;;;;5168825;27;20272;-38
2021/04/27 08:42:37;;;;;;;5.93;5.25;;;8.20;99.90;;;;;;5167830;27;20552;-37
2021/04/27 08:45:12;;;;;;;6.88;5.65;;;8.30;99.90;;;;;;5168924;27;20250;-36
2021/04/27 08:47:42;;;;;;;11.05;5.88;;;8.30;99.90;;;;;;5167364;27;20227;-37
2021/04/27 08:50:15;;;;;;;8.35;5.82;;;8.40;99.90;;;;;;5167870;27;20194;-36
2021/04/27 08:52:45;;;;;;;5.85;5.35;;;8.50;99.90;;;;;;5167958;27;20582;-40
2021/04/27 08:55:16;;;;;;;7.28;6.40;;;8.60;99.90;;;;;;5168802;27;20280;-38
2021/04/27 08:57:46;;;;;;;8.38;5.75;;;8.70;99.90;;;;;;5167124;27;20195;-36
2021/04/27 09:00:23;;;;;;;6.32;5.40;;;8.80;99.90;;;;;;5168507;27;20226;-37
2021/04/27 09:02:58;;;;;;;8.18;6.15;;;8.90;99.90;;;;;;5167939;27;20223;-41
2021/04/27 09:05:30;;;;;;;6.00;5.50;;;8.90;99.90;;;;;;5168315;27;20202;-39
2021/04/27 09:08:36;;;;;;;6.38;5.35;;;8.90;99.90;;;;;;5167077;27;20222;-37
2021/04/27 09:11:26;;;;;;;5.95;5.38;;;9.10;99.90;;;;;;5167995;27;20202;-41
2021/04/27 09:14:17;;;;;;;6.72;5.55;;;9.10;99.90;;;;;;5168362;27;20203;-41
2021/04/27 09:16:51;;;;;;;5.20;4.70;;;9.20;99.90;;;;;;5167254;27;20191;-38
2021/04/27 09:19:39;;;;;;;5.32;4.85;;;9.30;99.90;;;;;;5164495;27;20524;-39
2021/04/27 09:22:11;;;;;;;6.38;4.95;;;9.40;99.90;;;;;;5168070;27;20195;-39
2021/04/27 09:24:44;;;;;;;5.53;4.65;;;9.40;99.90;;;;;;5166540;27;20637;-41
2021/04/27 09:27:30;;;;;;;6.15;5.63;;;9.40;99.90;;;;;;5153328;27;20577;-38
2021/04/27 09:30:11;;;;;;;5.72;4.40;;;9.50;99.90;;;;;;5168304;27;20206;-38
2021/04/27 09:32:43;;;;;;;6.20;5.60;;;9.50;99.90;;;;;;5167077;27;20318;-38
2021/04/27 09:35:41;;;;;;;5.20;4.80;;;9.50;99.90;;;;;;5166888;27;20251;-40
2021/04/27 09:38:19;;;;;;;5.85;3.72;;;9.60;99.90;;;;;;5166500;27;20294;-35
2021/04/27 09:40:56;;;;;;;3.58;3.28;;;9.60;99.90;;;;;;5167842;27;20201;-40
2021/04/27 09:43:29;;;;;;;5.63;3.72;;;9.70;99.90;;;;;;5166981;27;20213;-39
2021/04/27 09:46:02;;;;;;;3.17;2.90;;;9.70;99.90;;;;;;5167019;27;20226;-39
2021/04/27 09:48:36;;;;;;;3.70;3.40;;;9.60;99.90;;;;;;5166382;27;20251;-39
2021/04/27 09:51:30;;;;;;;3.50;3.20;;;9.70;99.90;;;;;;5165112;27;20662;-39
2021/04/27 09:54:13;;;;;;;3.15;2.50;;;9.70;99.90;;;;;;5166671;27;20259;-39
2021/04/27 09:56:48;;;;;;;3.90;3.30;;;9.70;99.90;;;;;;5165760;27;20202;-39
2021/04/27 09:59:21;;;;;;;3.55;2.85;;;9.70;99.90;;;;;;5166594;27;20197;-38
2021/04/27 10:01:53;;;;;;;2.70;2.50;;;9.80;99.90;;;;;;5167043;27;20254;-37
2021/04/27 10:04:27;;;;;;;3.65;2.72;;;9.70;99.90;;;;;;5166458;27;20631;-38
2021/04/27 10:07:19;;;;;;;2.72;2.40;;;9.80;99.90;;;;;;5165499;27;20217;-38
2021/04/27 10:09:49;;;;;;;2.78;2.35;;;9.70;99.90;;;;;;5166749;27;20199;-41
2021/04/27 10:12:19;;;;;;;3.40;2.67;;;9.70;99.90;;;;;;5166204;27;20209;-39
2021/04/27 10:14:49;;;;;;;6.80;2.97;;;9.70;99.90;;;;;;5167209;27;20239;-40
2021/04/27 10:17:23;;;;;;;2.58;2.35;;;9.60;99.90;;;;;;5166571;27;20214;-39
2021/04/27 10:19:54;;;;;;;2.75;2.05;;;9.60;99.90;;;;;;5165711;27;20206;-39
2021/04/27 10:22:25;;;;;;;4.50;2.85;;;9.60;99.90;;;;;;5166030;27;20203;-39
2021/04/27 10:24:55;;;;;;;2.13;2.00;;;9.60;99.90;;;;;;5165949;27;20207;-39
2021/04/27 10:27:26;;;;;;;2.55;2.35;;;9.50;99.90;;;;;;5164892;27;20254;-40
2021/04/27 10:29:58;;;;;;;2.58;2.15;;;9.40;99.90;;;;;;5166198;27;20198;-41
2021/04/27 10:32:28;;;;;;;2.67;2.30;;;9.30;99.90;;;;;;5166101;27;20178;-36
2021/04/27 10:35:12;;;;;;;2.60;2.40;;;9.20;99.90;;;;;;5166539;27;20306;-37
2021/04/27 10:38:09;;;;;;;3.05;2.70;;;9.10;99.90;;;;;;5165484;27;20342;-37
2021/04/27 10:40:54;;;;;;;3.13;2.80;;;9.00;99.90;;;;;;5061421;28;20256;-40
2021/04/27 10:43:49;;;;;;;2.60;2.40;;;8.90;99.90;;;;;;5060133;28;20232;-41
2021/04/27 10:46:46;;;;;;;4.05;2.40;;;8.80;99.90;;;;;;5046354;28;20280;-38
2021/04/27 10:49:38;;;;;;;1.98;1.88;;;8.70;99.90;;;;;;5060734;28;20206;-40
2021/04/27 10:52:28;;;;;;;3.00;2.70;;;8.60;99.90;;;;;;5044188;28;20194;-39
2021/04/27 10:55:26;;;;;;;2.38;2.17;;;8.40;99.90;;;;;;5061361;28;20229;-37
2021/04/27 10:57:58;;;;;;;2.60;2.40;;;8.40;99.90;;;;;;5058803;28;20277;-38
2021/04/27 11:00:48;;;;;;;4.05;2.72;;;8.30;99.90;;;;;;5061592;28;20206;-39
2021/04/27 11:03:22;;;;;;;3.50;2.10;;;8.20;99.90;;;;;;5061286;28;20282;-39
2021/04/27 11:06:14;;;;;;;3.53;2.80;;;8.20;99.90;;;;;;5060933;28;20220;-39
2021/04/27 11:08:52;;;;;;;2.55;2.15;;;8.00;99.90;;;;;;5057724;28;20204;-38
2021/04/27 11:11:26;;;;;;;3.15;2.70;;;7.90;99.90;;;;;;5059774;28;20656;-39
2021/04/27 11:14:17;;;;;;;2.80;2.60;;;7.90;99.90;;;;;;5059164;28;20247;-39
2021/04/27 11:16:53;;;;;;;2.78;2.50;;;7.80;99.90;;;;;;5133442;27;20219;-38
2021/04/27 11:19:43;;;;;;;4.88;2.88;;;7.80;99.90;;;;;;5164723;27;20216;-38
2021/04/27 11:22:24;;;;;;;2.90;2.60;;;7.80;99.90;;;;;;5161383;27;20246;-38
2021/04/27 11:24:55;;;;;;;3.55;2.40;;;7.80;99.90;;;;;;5164831;27;20210;-38
2021/04/27 11:27:30;;;;;;;2.60;2.40;;;7.80;99.90;;;;;;5163122;27;20179;-38
2021/04/27 11:30:08;;;;;;;3.33;3.03;;;7.80;99.90;;;;;;5165387;27;20198;-38
2021/04/27 11:32:39;;;;;;;3.05;2.42;;;7.70;99.90;;;;;;5164827;27;20199;-39
2021/04/27 11:35:16;;;;;;;3.40;3.10;;;7.60;99.90;;;;;;5164855;27;20665;-39
2021/04/27 11:37:47;;;;;;;3.08;2.75;;;7.60;99.90;;;;;;5164741;27;20230;-38
2021/04/27 11:40:23;;;;;;;3.58;2.45;;;7.60;99.90;;;;;;5164646;27;20294;-37
2021/04/27 11:42:55;;;;;;;3.17;2.65;;;7.60;99.90;;;;;;5163727;27;20197;-39
2021/04/27 11:45:27;;;;;;;4.85;2.80;;;7.50;99.90;;;;;;5164697;27;20226;-37
2021/04/27 11:47:58;;;;;;;4.05;2.67;;;7.50;99.90;;;;;;5154773;27;20210;-38
2021/04/27 11:50:29;;;;;;;2.78;2.58;;;7.40;99.90;;;;;;5158837;27;20234;-39
2021/04/27 11:53:04;;;;;;;3.30;3.00;;;7.40;99.90;;;;;;5164218;27;20199;-38
2021/04/27 11:55:43;;;;;;;3.58;2.83;;;7.30;99.90;;;;;;5164273;27;20601;-38
2021/04/27 11:58:16;;;;;;;3.05;2.75;;;7.30;99.90;;;;;;5162540;27;20201;-40
2021/04/27 12:00:49;;;;;;;2.83;2.40;;;7.30;99.90;;;;;;5163892;27;20595;-37
2021/04/27 12:03:27;;;;;;;3.05;2.85;;;7.30;99.90;;;;;;5148201;27;20195;-38
2021/04/27 12:05:59;;;;;;;3.13;2.53;;;7.10;99.90;;;;;;5163795;27;20213;-39
2021/04/27 12:08:31;;;;;;;2.45;2.25;;;7.20;99.90;;;;;;5164172;27;20207;-39
2021/04/27 12:11:11;;;;;;;3.47;3.00;;;7.20;99.90;;;;;;5163686;27;20243;-38
2021/04/27 12:13:45;;;;;;;2.35;2.15;;;7.10;99.90;;;;;;5163851;27;20224;-38
2021/04/27 12:16:17;;;;;;;2.35;2.15;;;7.10;99.90;;;;;;5163870;27;20267;-37
2021/04/27 12:18:59;;;;;;;4.95;3.00;;;7.10;99.90;;;;;;5164841;27;20187;-37
2021/04/27 12:21:43;;;;;;;2.78;2.55;;;7.10;99.90;;;;;;5164201;27;20257;-38
2021/04/27 12:24:22;;;;;;;3.35;3.03;;;7.00;99.90;;;;;;5151785;27;20195;-38
2021/04/27 12:26:59;;;;;;;2.92;2.65;;;7.10;99.90;;;;;;5160969;27;20202;-36
2021/04/27 12:29:32;;;;;;;2.30;2.10;;;7.10;99.90;;;;;;5163345;27;20204;-37
2021/04/27 12:32:07;;;;;;;3.30;2.60;;;7.00;99.90;;;;;;5163909;27;20199;-39
2021/04/27 12:34:54;;;;;;;2.95;2.63;;;7.00;99.90;;;;;;5164041;27;20182;-39
2021/04/27 12:37:25;;;;;;;2.75;2.55;;;6.90;99.90;;;;;;5164074;27;20186;-38
2021/04/27 12:39:56;;;;;;;3.25;2.80;;;6.90;99.90;;;;;;5164005;27;20582;-36
2021/04/27 12:42:30;;;;;;;2.67;2.42;;;6.80;99.90;;;;;;5155463;27;20222;-37
2021/04/27 12:45:04;;;;;;;3.70;2.97;;;6.80;99.90;;;;;;5164107;27;20290;-39
2021/04/27 12:47:35;;;;;;;2.88;2.67;;;6.90;99.90;;;;;;5162731;27;20198;-38
2021/04/27 12:50:08;;;;;;;2.97;2.67;;;6.90;99.90;;;;;;5162735;27;20202;-35
2021/04/27 12:52:42;;;;;;;4.68;2.90;;;6.90;99.90;;;;;;5163778;27;20618;-37
2021/04/27 12:55:18;;;;;;;3.58;2.88;;;7.00;99.90;;;;;;5163979;27;20295;-38
2021/04/27 12:58:06;;;;;;;3.20;2.90;;;7.10;99.90;;;;;;5162758;27;20198;-36
2021/04/27 13:00:47;;;;;;;4.47;2.92;;;7.20;99.90;;;;;;5160914;27;20201;-36
2021/04/27 13:03:19;;;;;;;2.78;2.47;;;7.20;99.90;;;;;;5164052;27;20206;-37
2021/04/27 13:05:52;;;;;;;3.00;2.80;;;7.30;99.90;;;;;;5162699;27;20230;-35
2021/04/27 13:08:25;;;;;;;4.38;3.20;;;7.30;99.90;;;;;;5163313;27;20578;-38
2021/04/27 13:11:00;;;;;;;5.18;3.38;;;7.40;99.90;;;;;;5164634;27;20199;-38
2021/04/27 13:13:31;;;;;;;3.80;3.13;;;7.50;99.90;;;;;;5166663;27;20187;-38
2021/04/27 13:16:04;;;;;;;3.05;2.70;;;7.50;99.90;;;;;;5167651;27;20262;-36
2021/04/27 13:18:34;;;;;;;3.45;2.58;;;7.50;99.90;;;;;;5167527;27;20210;-38
2021/04/27 13:21:05;;;;;;;3.50;3.20;;;7.50;99.90;;;;;;5163240;27;20205;-38
2021/04/27 13:23:36;;;;;;;4.85;2.65;;;7.40;99.90;;;;;;5167555;27;20224;-38